Data for 10/01/2017

Time Sea-Level Adjusted Pressure Absolute Pressure Temperature Relative Humidity Dew Point   
(mb) (inHg) (mb) (inHg) (C) (F) (%) (C) (F)
00:05 1015 29.97 844 24.92 5.6 42.1 67 0.1 32.1
00:10 1015 29.97 844 24.92 5.6 42 66 -0.2 31.6
00:15 1015 29.97 844 24.92 5.5 41.9 66 -0.2 31.6
00:20 1015 29.97 844 24.92 5.4 41.8 66 -0.5 31.1
00:25 1015 29.97 844 24.92 5.4 41.8 65 -0.7 30.8
00:30 1015 29.97 844 24.92 5.4 41.6 68 -0.1 31.8
00:35 1015 29.97 844 24.92 5.3 41.5 67 -0.4 31.3
00:40 1015 29.97 844 24.92 5.3 41.5 66 -0.6 30.9
00:45 1015 29.97 844 24.92 5.3 41.6 62 -1.4 29.5
00:50 1015 29.97 844 24.92 5.5 41.8 62 -1.3 29.6
00:55 1015 29.97 844 24.92 5.5 41.8 60 -1.6 29
01:00 1015 29.97 844 24.92 5.5 41.9 60 -1.6 29.1
01:05 1015 29.97 844 24.92 5.5 42 61 -1.5 29.3
01:10 1015 29.97 844 24.92 5.5 41.8 62 -1.2 29.8
01:15 1015 29.97 844 24.92 5.4 41.7 62 -1.4 29.5
01:20 1015 29.97 844 24.92 5.4 41.6 62 -1.3 29.7
01:25 1015 29.97 844 24.92 5.3 41.5 62 -1.4 29.5
01:30 1015 29.97 844 24.92 5.3 41.5 61 -1.5 29.3
01:35 1015 29.97 844 24.92 5.3 41.5 62 -1.5 29.3
01:40 1015 29.97 844 24.92 5.2 41.4 62 -1.5 29.3
01:45 1015 29.97 844 24.92 5.1 41.2 63 -1.4 29.5
01:50 1015 29.97 844 24.92 5 41 63 -1.4 29.6
01:55 1015 29.97 844 24.92 4.8 40.7 65 -1.2 29.8
02:00 1015 29.97 844 24.92 4.7 40.4 69 -0.6 31
02:05 1015 29.97 844 24.92 4.4 40 71 -0.3 31.4
02:10 1015 29.97 844 24.92 4.3 39.7 71 -0.6 30.9
02:15 1015 29.97 844 24.92 4.1 39.4 71 -0.6 30.9
02:20 1015 29.97 844 24.92 3.9 39.1 71 -0.9 30.3
02:25 1015 29.97 844 24.92 3.9 39 71 -0.9 30.4
02:30 1015 29.97 844 24.92 3.9 39.1 73 -0.5 31.1
02:35 1015 29.97 844 24.92 4 39.1 70 -1 30.2
02:40 1015 29.97 844 24.92 4.2 39.5 69 -1.1 30.1
02:45 1015 29.97 844 24.92 4.1 39.4 72 -0.5 31.1
02:50 1015 29.97 844 24.92 3.9 39.1 70 -1 30.1
02:55 1015 29.97 844 24.92 3.8 38.9 70 -1.1 30.1
03:00 1015 29.97 844 24.92 3.9 39 69 -1.3 29.7
03:05 1015 29.97 844 24.92 4 39.1 69 -1.2 29.8
03:10 1015 29.97 844 24.92 3.9 39 68 -1.5 29.4
03:15 1015 29.97 844 24.92 3.7 38.6 69 -1.6 29.2
03:20 1015 29.97 844 24.92 3.6 38.4 69 -1.5 29.3
03:25 1015 29.97 844 24.92 3.4 38.2 69 -1.6 29
03:30 1015 29.97 844 24.92 3.4 38.1 69 -1.8 28.8
03:35 1015 29.97 844 24.92 3.4 38.1 68 -1.9 28.5
03:40 1015 29.97 844 24.92 3.4 38.1 69 -1.7 28.9
03:45 1015 29.97 844 24.92 3.2 37.8 70 -1.7 28.9
03:50 1015 29.97 844 24.92 3.1 37.5 72 -1.6 29.2
03:55 1015 29.97 844 24.92 3 37.5 68 -2.3 27.9
04:00 1015 29.97 844 24.92 3.2 37.7 67 -2.4 27.7
04:05 1015 29.97 844 24.92 3.1 37.6 65 -2.7 27.1
04:10 1015 29.97 844 24.92 3.2 37.7 65 -2.8 27
04:15 1015 29.97 844 24.92 3.1 37.7 64 -2.9 26.7
04:20 1015 29.97 844 24.92 3.2 37.8 64 -2.8 26.9
04:25 1015 29.97 844 24.92 3.2 37.7 67 -2.3 27.8
04:30 1015 29.97 844 24.92 2.8 37.1 67 -2.7 27.2
04:35 1015 29.97 844 24.92 2.8 37.1 68 -2.4 27.7
04:40 1015 29.97 844 24.92 2.7 36.8 71 -2.1 28.2
04:45 1015 29.97 844 24.92 2.5 36.6 71 -2.3 27.9
04:50 1015 29.97 844 24.92 2.5 36.5 70 -2.4 27.7
04:55 1014 29.94 844 24.92 2.7 36.8 68 -2.6 27.4
05:00 1014 29.94 844 24.92 2.9 37.2 67 -2.6 27.2
05:05 1014 29.94 844 24.92 3.1 37.5 67 -2.4 27.7
05:10 1014 29.94 844 24.92 3.1 37.5 66 -2.7 27.1
05:15 1014 29.94 844 24.92 3.1 37.6 67 -2.5 27.6
05:20 1014 29.94 844 24.92 2.9 37.3 66 -2.8 27
05:25 1014 29.94 844 24.92 3.1 37.5 66 -2.7 27.1
05:30 1014 29.94 844 24.92 3 37.3 67 -2.6 27.3
05:35 1014 29.94 844 24.92 2.8 37.1 68 -2.5 27.4
05:40 1014 29.94 843 24.89 2.7 36.9 69 -2.4 27.6
05:45 1014 29.94 843 24.89 2.6 36.6 71 -2.2 28
05:50 1014 29.94 843 24.89 2 35.6 73 -2.3 27.9
05:55 1014 29.94 843 24.89 2.1 35.7 72 -2.5 27.5
06:00 1014 29.94 843 24.89 2.2 35.9 72 -2.3 27.8
06:05 1014 29.94 843 24.89 2.2 36 73 -2.1 28.2
06:10 1014 29.94 843 24.89 2.2 35.9 74 -2 28.4
06:15 1014 29.94 843 24.89 2 35.5 75 -2.1 28.2
06:20 1014 29.94 843 24.89 1.9 35.5 76 -1.9 28.6
06:25 1014 29.94 843 24.89 2 35.5 75 -2 28.5
06:30 1014 29.94 843 24.89 2.4 36.2 73 -1.9 28.6
06:35 1014 29.94 843 24.89 2.5 36.5 77 -1.1 30
06:40 1014 29.94 843 24.89 1.6 34.9 79 -1.7 29
06:45 1014 29.94 843 24.89 1.7 35.1 78 -1.8 28.8
06:50 1014 29.94 843 24.89 1.8 35.2 76 -2 28.3
06:55 1014 29.94 844 24.92 1.8 35.3 75 -2.1 28.1
07:00 1014 29.94 844 24.92 2.1 35.8 73 -2.3 27.9
07:05 1014 29.94 844 24.92 2.7 36.9 69 -2.4 27.7
07:10 1014 29.94 844 24.92 3.3 37.9 66 -2.5 27.4
07:15 1014 29.94 844 24.92 4.1 39.4 62 -2.5 27.5
07:20 1014 29.94 844 24.92 4.6 40.3 61 -2.3 27.9
07:25 1014 29.94 844 24.92 5 41 58 -2.4 27.6
07:30 1014 29.94 844 24.92 4.9 40.8 62 -1.9 28.6
07:35 1014 29.94 844 24.92 4.7 40.5 63 -1.7 29
07:40 1014 29.94 844 24.92 5.3 41.5 61 -1.5 29.2
07:45 1014 29.94 844 24.92 5.9 42.6 59 -1.6 29.2
07:50 1014 29.94 844 24.92 6.4 43.5 58 -1.3 29.6
07:55 1014 29.94 844 24.92 6.6 43.9 56 -1.4 29.4
08:00 1014 29.94 844 24.92 6.7 44 56 -1.5 29.2
08:05 1014 29.94 844 24.92 6.7 44.1 55 -1.5 29.2
08:10 1014 29.94 844 24.92 6.8 44.2 56 -1.5 29.4
08:15 1014 29.94 844 24.92 6.9 44.4 57 -1 30.2
08:20 1014 29.94 844 24.92 6.9 44.4 56 -1.2 29.8
08:25 1014 29.94 844 24.92 6.8 44.2 56 -1.4 29.5
08:30 1014 29.94 844 24.92 7 44.6 56 -1.1 30.1
08:35 1014 29.94 844 24.92 7.3 45.2 55 -1 30.2
08:40 1014 29.94 844 24.92 7.4 45.3 55 -0.9 30.3
08:45 1014 29.94 844 24.92 7.5 45.5 52 -1.7 28.9
08:50 1014 29.94 844 24.92 7.7 45.8 52 -1.6 29.1
08:55 1014 29.94 844 24.92 7.8 46 51 -1.8 28.8
09:00 1014 29.94 844 24.92 7.9 46.2 51 -1.5 29.2
09:05 1014 29.94 844 24.92 8.2 46.8 48 -2.1 28.3
09:10 1014 29.94 844 24.92 8.6 47.4 48 -1.7 28.9
09:15 1014 29.94 843 24.89 8.8 47.9 48 -1.5 29.4
09:20 1014 29.94 843 24.89 8.6 47.6 47 -2 28.4
09:25 1014 29.94 843 24.89 8.7 47.7 46 -2.1 28.2
09:30 1014 29.94 843 24.89 8.9 48 46 -2 28.3
09:35 1014 29.94 843 24.89 8.9 48 46 -2.1 28.1
09:40 1014 29.94 843 24.89 8.9 47.9 47 -1.9 28.5
09:45 1014 29.94 843 24.89 8.9 48 46 -2 28.4
09:50 1014 29.94 843 24.89 9.3 48.7 45 -2.1 28.3
09:55 1014 29.94 843 24.89 9.1 48.5 44 -2.4 27.7
10:00 1014 29.94 843 24.89 9.1 48.4 45 -2.1 28.2
10:05 1014 29.94 843 24.89 9.2 48.6 43 -2.7 27.1
10:10 1014 29.94 843 24.89 9.4 48.9 43 -2.5 27.5
10:15 1014 29.94 843 24.89 9.5 49 44 -2.2 28
10:20 1014 29.94 843 24.89 9.6 49.3 43 -2.2 28.1
10:25 1014 29.94 843 24.89 9 48.3 46 -2.1 28.3
10:30 1014 29.94 843 24.89 9.6 49.3 44 -2.1 28.2
10:35 1014 29.94 843 24.89 9.8 49.6 42 -2.6 27.3
10:40 1014 29.94 843 24.89 9.7 49.4 40 -3.1 26.4
10:45 1014 29.94 843 24.89 9.6 49.3 41 -3 26.7
10:50 1014 29.94 843 24.89 8.9 48.1 42 -3.3 26.1
10:55 1014 29.94 843 24.89 8.9 48 46 -2.2 28.1
11:00 1014 29.94 843 24.89 8.6 47.5 47 -2 28.4
11:05 1014 29.94 843 24.89 8 46.5 48 -2.2 28.1
11:10 1014 29.94 843 24.89 7.8 46 50 -1.9 28.7
11:15 1014 29.94 843 24.89 7.2 44.9 48 -3.1 26.5
11:20 1014 29.94 843 24.89 7.3 45.1 48 -3.1 26.5
11:25 1014 29.94 843 24.89 7.6 45.8 44 -3.7 25.3
11:30 1014 29.94 843 24.89 8.5 47.3 44 -2.9 26.8
11:35 1014 29.94 843 24.89 7.8 46 53 -1.3 29.7
11:40 1014 29.94 843 24.89 7.1 44.7 51 -2.3 27.9
11:45 1014 29.94 843 24.89 7 44.6 50 -2.6 27.3
11:50 1014 29.94 843 24.89 6.9 44.3 56 -1.4 29.5
11:55 1014 29.94 843 24.89 7.2 45 49 -2.7 27.2
12:00 1014 29.94 843 24.89 7.6 45.6 50 -2.2 28.1
12:05 1014 29.94 843 24.89 7.6 45.7 49 -2.3 27.9
12:10 1014 29.94 843 24.89 8.1 46.5 45 -3.1 26.4
12:15 1014 29.94 843 24.89 8.5 47.3 42 -3.8 25.2
12:20 1013 29.91 843 24.89 9.8 49.6 39 -3.6 25.4
12:25 1013 29.91 843 24.89 10.4 50.8 40 -2.6 27.3
12:30 1013 29.91 843 24.89 9.8 49.7 40 -3 26.7
12:35 1013 29.91 843 24.89 9.5 49.2 41 -3.1 26.4
12:40 1013 29.91 843 24.89 9.5 49.1 41 -3.2 26.3
12:45 1013 29.91 843 24.89 9.7 49.4 41 -3 26.6
12:50 1013 29.91 842 24.86 9.6 49.3 42 -2.5 27.5
12:55 1013 29.91 842 24.86 9.4 49 42 -2.8 27
13:00 1013 29.91 842 24.86 9.6 49.2 41 -3.1 26.5
13:05 1013 29.91 842 24.86 10.6 51 36 -3.9 25
13:10 1013 29.91 842 24.86 11 51.8 36 -3.6 25.6
13:15 1013 29.91 842 24.86 10.1 50.1 38 -3.4 25.8
13:20 1013 29.91 842 24.86 9.8 49.7 39 -3.3 26.1
13:25 1013 29.91 842 24.86 10 50 38 -3.7 25.3
13:30 1013 29.91 842 24.86 9.6 49.2 38 -3.9 25
13:35 1013 29.91 842 24.86 9 48.2 38 -4.4 24.1
13:40 1013 29.91 842 24.86 8.7 47.7 38 -4.7 23.5
13:45 1013 29.91 842 24.86 8.7 47.6 39 -4.6 23.7
13:50 1013 29.91 842 24.86 8.5 47.3 39 -4.5 23.9
13:55 1013 29.91 842 24.86 8.5 47.2 39 -4.7 23.6
14:00 1013 29.91 842 24.86 8.9 48.1 37 -4.8 23.3
14:05 1013 29.91 842 24.86 9.2 48.6 38 -4.3 24.2
14:10 1013 29.91 842 24.86 9.1 48.4 40 -3.6 25.4
14:15 1013 29.91 842 24.86 8.9 48.1 41 -3.5 25.7
14:20 1013 29.91 842 24.86 8.6 47.4 44 -2.9 26.8
14:25 1013 29.91 842 24.86 8.3 47 45 -3 26.7
14:30 1013 29.91 842 24.86 8.2 46.7 47 -2.5 27.5
14:35 1013 29.91 842 24.86 8.1 46.5 45 -3 26.6
14:40 1013 29.91 842 24.86 8.2 46.8 45 -3.1 26.5
14:45 1013 29.91 842 24.86 8.4 47 46 -2.7 27.2
14:50 1013 29.91 842 24.86 8.1 46.5 46 -2.9 26.7
14:55 1013 29.91 842 24.86 8.2 46.8 46 -2.7 27.2
15:00 1013 29.91 842 24.86 8.2 46.7 48 -2.3 27.9
15:05 1013 29.91 842 24.86 8.3 46.9 51 -1.3 29.7
15:10 1013 29.91 842 24.86 8.1 46.5 52 -1.3 29.7
15:15 1013 29.91 842 24.86 7.6 45.8 51 -1.8 28.7
15:20 1013 29.91 842 24.86 7.8 46.1 47 -2.7 27.1
15:25 1013 29.91 842 24.86 7.9 46.2 46 -3 26.6
15:30 1013 29.91 842 24.86 7.9 46.3 46 -3.1 26.4
15:35 1013 29.91 842 24.86 8.2 46.8 43 -3.6 25.5
15:40 1013 29.91 842 24.86 8.6 47.5 43 -3.3 26.1
15:45 1013 29.91 842 24.86 9.4 48.9 40 -3.5 25.8
15:50 1013 29.91 842 24.86 9.9 49.8 41 -2.8 27
15:55 1013 29.91 842 24.86 8.8 47.9 42 -3.5 25.8
16:00 1013 29.91 842 24.86 8.9 47.9 42 -3.4 25.9
16:05 1013 29.91 842 24.86 9 48.2 41 -3.6 25.6
16:10 1013 29.91 842 24.86 8.8 47.9 42 -3.2 26.2
16:15 1013 29.91 842 24.86 8.6 47.5 42 -3.7 25.3
16:20 1013 29.91 842 24.86 8.6 47.4 41 -3.9 25
16:25 1013 29.91 842 24.86 9.1 48.3 39 -4.2 24.5
16:30 1013 29.91 842 24.86 8.8 47.9 41 -3.7 25.4
16:35 1013 29.91 842 24.86 8.7 47.6 41 -3.7 25.3
16:40 1013 29.91 842 24.86 8.3 46.9 43 -3.5 25.7
16:45 1013 29.91 842 24.86 8.2 46.7 45 -3 26.7
16:50 1013 29.91 842 24.86 8.2 46.8 43 -3.7 25.3
16:55 1013 29.91 842 24.86 8 46.4 44 -3.5 25.8
17:00 1013 29.91 842 24.86 8.4 47 43 -3.6 25.6
17:05 1013 29.91 842 24.86 8.6 47.5 42 -3.6 25.5
17:10 1013 29.91 843 24.89 8.4 47.1 42 -3.7 25.3
17:15 1013 29.91 843 24.89 8.4 47.1 44 -3.2 26.2
17:20 1013 29.91 843 24.89 8.4 47.1 43 -3.3 26
17:25 1014 29.94 843 24.89 8 46.3 50 -1.9 28.5
17:30 1014 29.94 843 24.89 7.5 45.4 51 -2 28.4
17:35 1014 29.94 843 24.89 7.4 45.2 50 -2.2 28
17:40 1014 29.94 843 24.89 7.4 45.3 50 -2.4 27.7
17:45 1014 29.94 843 24.89 7.3 45.2 50 -2.3 27.8
17:50 1014 29.94 843 24.89 7.2 44.9 55 -1.2 29.8
17:55 1014 29.94 843 24.89 6.2 43.1 61 -0.9 30.5
18:00 1014 29.94 843 24.89 5.4 41.8 62 -1.2 29.9
18:05 1014 29.94 843 24.89 5.6 42.1 63 -0.9 30.3
18:10 1014 29.94 844 24.92 5.3 41.6 67 -0.3 31.4
18:15 1014 29.94 844 24.92 5.1 41.3 68 -0.2 31.7
18:20 1014 29.94 844 24.92 4.9 40.9 71 0.2 32.3
18:25 1014 29.94 844 24.92 4.6 40.3 72 0 32.1
18:30 1014 29.94 844 24.92 4.7 40.4 72 0.1 32.1
18:35 1015 29.97 844 24.92 4.6 40.2 73 0.2 32.4
18:40 1015 29.97 844 24.92 4.3 39.7 74 0 32
18:45 1015 29.97 844 24.92 4.1 39.4 73 -0.3 31.4
18:50 1015 29.97 844 24.92 4.1 39.4 74 -0.1 31.8
18:55 1015 29.97 844 24.92 4 39.2 77 0.3 32.5
19:00 1015 29.97 844 24.92 3.7 38.7 78 0.3 32.5
19:05 1015 29.97 844 24.92 3.6 38.4 79 0.2 32.3
19:10 1015 29.97 844 24.92 3.6 38.5 77 -0.1 31.9
19:15 1015 29.97 844 24.92 3.5 38.3 78 0.1 32.1
19:20 1015 29.97 844 24.92 3.4 38.2 78 0 32.1
19:25 1015 29.97 844 24.92 3.4 38.1 79 0 32
19:30 1015 29.97 845 24.95 3.4 38.2 79 0.1 32.2
19:35 1015 29.97 845 24.95 3.5 38.3 79 0.2 32.3
19:40 1015 29.97 845 24.95 3.6 38.4 78 0.1 32.2
19:45 1015 29.97 845 24.95 3.6 38.5 78 0.2 32.4
19:50 1015 29.97 845 24.95 3.7 38.6 78 0.2 32.4
19:55 1016 30 845 24.95 3.9 39 76 -0 32
20:00 1016 30 845 24.95 4.1 39.5 76 0.2 32.4
20:05 1016 30 845 24.95 4.3 39.8 74 0.1 32.2
20:10 1016 30 845 24.95 4.3 39.8 74 0 32.1
20:15 1016 30 845 24.95 4.3 39.8 74 0.1 32.1
20:20 1016 30 845 24.95 4.3 39.7 74 0.1 32.1
20:25 1016 30 845 24.95 4.4 39.9 74 0.1 32.2
20:30 1016 30 845 24.95 4.4 39.9 74 0.1 32.2
20:35 1016 30 845 24.95 4.4 40 73 -0 31.9
20:40 1016 30 845 24.95 4.3 39.7 75 0.3 32.6
20:45 1016 30 845 24.95 4.2 39.6 76 0.4 32.7
20:50 1016 30 845 24.95 4.2 39.5 76 0.3 32.5
20:55 1016 30 845 24.95 4 39.1 77 0.2 32.4
21:00 1016 30 845 24.95 3.9 39 77 0.2 32.4
21:05 1016 30 845 24.95 3.7 38.7 78 0.3 32.5
21:10 1016 30 845 24.95 3.5 38.3 80 0.5 32.8
21:15 1016 30 845 24.95 3.3 38 82 0.5 32.9
21:20 1016 30 845 24.95 3.2 37.8 82 0.5 32.9
21:25 1016 30 845 24.95 3.3 37.9 81 0.4 32.7
21:30 1016 30 845 24.95 3.3 37.9 82 0.5 32.9
21:35 1016 30 845 24.95 3.2 37.7 82 0.5 32.9
21:40 1016 30 845 24.95 3.2 37.7 82 0.4 32.8
21:45 1016 30 845 24.95 3.2 37.8 82 0.4 32.8
21:50 1016 30 845 24.95 3.3 37.9 82 0.5 32.9
21:55 1016 30 845 24.95 3.2 37.8 82 0.5 32.9
22:00 1016 30 845 24.95 3.1 37.6 83 0.5 32.8
22:05 1016 30 845 24.95 2.9 37.2 84 0.4 32.7
22:10 1016 30 845 24.95 2.8 37 84 0.4 32.8
22:15 1016 30 845 24.95 2.8 37 85 0.5 32.9
22:20 1016 30 845 24.95 2.7 36.9 85 0.5 32.9
22:25 1016 30 845 24.95 2.7 36.9 85 0.5 32.9
22:30 1016 30 845 24.95 2.6 36.7 86 0.5 32.9
22:35 1016 30 845 24.95 2.6 36.6 86 0.5 32.9
22:40 1016 30 845 24.95 2.5 36.6 86 0.5 32.9
22:45 1016 30 845 24.95 2.6 36.7 86 0.6 33.1
22:50 1016 30 845 24.95 2.7 36.9 86 0.6 33.1
22:55 1016 30 845 24.95 2.8 37 85 0.6 33
23:00 1016 30 845 24.95 2.8 37 86 0.7 33.3
23:05 1016 30 845 24.95 2.8 37.1 86 0.8 33.4
23:10 1016 30 845 24.95 2.9 37.2 86 0.9 33.5
23:15 1016 30 845 24.95 2.9 37.3 86 0.9 33.6
23:20 1016 30 845 24.95 2.9 37.2 86 0.9 33.5
23:25 1016 30 845 24.95 2.9 37.3 86 0.9 33.5
23:30 1016 30 845 24.95 2.9 37.3 86 0.8 33.5
23:35 1016 30 845 24.95 2.9 37.2 87 0.9 33.6
23:40 1016 30 845 24.95 2.9 37.2 87 0.9 33.6
23:45 1016 30 845 24.95 2.9 37.3 86 0.9 33.6
23:50 1016 30 845 24.95 2.9 37.2 86 0.8 33.5
23:55 1016 30 845 24.95 2.9 37.2 86 0.8 33.5
24:00 1016 30 845 24.95 2.9 37.2 87 0.9 33.6